Time;durP1;ratioP1;P1;durP2;ratioP2;P2;SDS_P1;SDS_P2;PMS_P1;PMS_P2;Temp;Humidity;BMP_temperature;BMP_pressure;BME280_temperature;BME280_humidity;BME280_pressure;Samples;Min_cycle;Max_cycle;Signal;HPM_P1;HPM_P2
2022/08/06 00:00:17;;;;;;;;;;;;;;;;;;4996772;28;20047;-88
2022/08/06 00:02:44;;;;;;;8.10;7.30;;;;;;;;;;4997366;28;20282;-88
2022/08/06 00:05:11;;;;;;;8.85;7.93;;;;;;;;;;4996016;28;20096;-89
2022/08/06 00:07:49;;;;;;;9.63;8.73;;;;;;;;;;4996245;28;20059;-88
2022/08/06 00:10:19;;;;;;;8.68;7.82;;;;;;;;;;4996065;28;20092;-89
2022/08/06 00:12:57;;;;;;;10.32;7.50;;;;;;;;;;4996038;28;20138;-88
2022/08/06 00:15:26;;;;;;;8.05;7.30;;;;;;;;;;4995870;28;20104;-87
2022/08/06 00:18:13;;;;;;;7.70;7.07;;;;;;;;;;4996863;28;20061;-88
2022/08/06 00:20:40;;;;;;;8.35;7.45;;;;;;;;;;4996220;28;20114;-88
2022/08/06 00:23:08;;;;;;;7.47;6.70;;;;;;;;;;4995990;28;20475;-88
2022/08/06 00:25:43;;;;;;;9.45;7.53;;;;;;;;;;4995911;28;20590;-89
2022/08/06 00:28:18;;;;;;;7.72;7.18;;;;;;;;;;4995949;28;20068;-88
2022/08/06 00:30:46;;;;;;;10.82;8.50;;;;;;;;;;4996044;28;20564;-89
2022/08/06 00:33:13;;;;;;;10.88;9.20;;;;;;;;;;4996925;28;20455;-88
2022/08/06 00:35:41;;;;;;;12.25;9.27;;;;;;;;;;4995803;28;20445;-88
2022/08/06 00:38:12;;;;;;;11.32;10.13;;;;;;;;;;4995736;28;20058;-89
2022/08/06 00:40:40;;;;;;;9.43;8.45;;;;;;;;;;4995509;28;20410;-89
2022/08/06 00:43:16;;;;;;;9.13;8.20;;;;;;;;;;4995638;28;20051;-90
2022/08/06 00:45:46;;;;;;;9.07;8.38;;;;;;;;;;4995431;28;20050;-89
2022/08/06 00:48:14;;;;;;;12.20;8.23;;;;;;;;;;4995546;28;20070;-89
2022/08/06 00:51:01;;;;;;;10.93;9.15;;;;;;;;;;4995416;28;20054;-90
2022/08/06 00:53:29;;;;;;;9.50;8.63;;;;;;;;;;4995031;28;20415;-89
2022/08/06 00:56:01;;;;;;;8.80;8.00;;;;;;;;;;4995289;28;20045;-90
2022/08/06 00:58:37;;;;;;;8.75;7.88;;;;;;;;;;4995122;28;20108;-90
2022/08/06 01:01:07;;;;;;;9.43;8.52;;;;;;;;;;4995013;28;20051;-89
2022/08/06 01:03:43;;;;;;;8.52;7.82;;;;;;;;;;4995209;28;20054;-89
2022/08/06 01:06:18;;;;;;;9.43;7.22;;;;;;;;;;4994821;28;20051;-89
2022/08/06 01:09:05;;;;;;;10.02;9.00;;;;;;;;;;4996035;28;20050;-90
2022/08/06 01:11:33;;;;;;;10.10;9.00;;;;;;;;;;5000729;28;20050;-89
2022/08/06 01:14:01;;;;;;;8.30;7.63;;;;;;;;;;4995555;28;20550;-89
2022/08/06 01:16:40;;;;;;;8.90;8.10;;;;;;;;;;4995051;28;20511;-89
2022/08/06 01:19:30;;;;;;;9.30;8.40;;;;;;;;;;4995228;28;20050;-90
2022/08/06 01:22:27;;;;;;;9.90;8.52;;;;;;;;;;4994969;28;20141;-89
2022/08/06 01:25:14;;;;;;;8.77;7.75;;;;;;;;;;4994561;28;20077;-90
2022/08/06 01:27:41;;;;;;;;;;;;;;;;;;4995414;28;20072;-90
2022/08/06 01:30:12;;;;;;;7.78;7.07;;;;;;;;;;5027468;28;19965;-90
2022/08/06 01:32:45;;;;;;;9.63;8.70;;;;;;;;;;4994587;28;20051;-90
2022/08/06 01:35:22;;;;;;;10.75;9.65;;;;;;;;;;4994620;28;20073;-90
2022/08/06 01:38:14;;;;;;;11.20;10.13;;;;;;;;;;4994413;28;20051;-90
2022/08/06 01:40:45;;;;;;;10.20;9.13;;;;;;;;;;4994734;28;20414;-90
2022/08/06 01:43:19;;;;;;;11.00;9.80;;;;;;;;;;4994273;28;20070;-90
2022/08/06 01:46:08;;;;;;;12.32;9.27;;;;;;;;;;4994290;28;20060;-89
2022/08/06 01:48:38;;;;;;;10.50;9.40;;;;;;;;;;4994406;28;20054;-89
2022/08/06 01:51:07;;;;;;;10.63;9.27;;;;;;;;;;4994173;28;20553;-90
2022/08/06 01:53:55;;;;;;;10.27;8.98;;;;;;;;;;4993838;28;20506;-89
2022/08/06 01:56:35;;;;;;;10.80;9.70;;;;;;;;;;4994371;28;20054;-90
2022/08/06 01:59:24;;;;;;;12.20;9.70;;;;;;;;;;4994519;28;20054;-90
2022/08/06 02:01:52;;;;;;;10.38;9.10;;;;;;;;;;4994078;28;20129;-90
2022/08/06 02:04:23;;;;;;;12.32;10.27;;;;;;;;;;4994005;28;20520;-90
2022/08/06 02:06:50;;;;;;;11.32;9.05;;;;;;;;;;4993464;28;20096;-89
2022/08/06 02:09:20;;;;;;;10.52;9.48;;;;;;;;;;4993971;28;20478;-89
2022/08/06 02:11:58;;;;;;;9.32;8.43;;;;;;;;;;4993190;28;20046;-89
2022/08/06 02:14:33;;;;;;;8.90;8.15;;;;;;;;;;4993587;28;20083;-89
2022/08/06 02:17:02;;;;;;;8.25;7.65;;;;;;;;;;4993666;28;20092;-90
2022/08/06 02:19:45;;;;;;;9.38;8.38;;;;;;;;;;4994002;28;20070;-90
2022/08/06 02:22:34;;;;;;;11.55;8.88;;;;;;;;;;4993843;28;20050;-90
2022/08/06 02:25:05;;;;;;;10.63;8.65;;;;;;;;;;4993260;28;20109;-89
2022/08/06 02:27:44;;;;;;;10.57;9.48;;;;;;;;;;4993814;28;20424;-89
2022/08/06 02:30:25;;;;;;;10.82;9.73;;;;;;;;;;4994060;28;20054;-90
2022/08/06 02:33:01;;;;;;;9.88;8.90;;;;;;;;;;4997816;28;20069;-90
2022/08/06 02:35:30;;;;;;;9.88;8.13;;;;;;;;;;5000454;28;20074;-89
2022/08/06 02:38:06;;;;;;;11.05;8.43;;;;;;;;;;4993374;28;20070;-89
2022/08/06 02:40:44;;;;;;;8.25;7.50;;;;;;;;;;4993606;28;20058;-90
2022/08/06 02:43:14;;;;;;;12.43;9.32;;;;;;;;;;4993561;28;20407;-89
2022/08/06 02:45:48;;;;;;;10.38;9.00;;;;;;;;;;4993077;28;20058;-90
2022/08/06 02:48:25;;;;;;;10.15;9.20;;;;;;;;;;4993349;28;20093;-88
2022/08/06 02:50:58;;;;;;;;;;;;;;;;;;4993855;28;20053;-89
2022/08/06 02:53:29;;;;;;;10.13;8.55;;;;;;;;;;5025894;28;19960;-90
2022/08/06 02:56:12;;;;;;;8.68;7.78;;;;;;;;;;4993002;28;20158;-89
2022/08/06 02:58:40;;;;;;;8.55;7.72;;;;;;;;;;4993280;28;20050;-89
2022/08/06 03:01:22;;;;;;;8.55;7.80;;;;;;;;;;4993355;28;20050;-89
2022/08/06 03:03:53;;;;;;;9.57;7.93;;;;;;;;;;4993129;28;20089;-89
2022/08/06 03:06:27;;;;;;;10.48;7.63;;;;;;;;;;4992962;28;20050;-89
2022/08/06 03:08:57;;;;;;;9.65;8.02;;;;;;;;;;4993136;28;20054;-89
2022/08/06 03:11:24;;;;;;;9.50;8.23;;;;;;;;;;4992912;28;20086;-89
2022/08/06 03:13:57;;;;;;;9.30;8.40;;;;;;;;;;4993316;28;20051;-89
2022/08/06 03:16:27;;;;;;;11.05;8.20;;;;;;;;;;4993464;28;20054;-89
2022/08/06 03:18:56;;;;;;;9.40;8.43;;;;;;;;;;4993121;28;20437;-89
2022/08/06 03:21:44;;;;;;;8.18;7.30;;;;;;;;;;4993048;28;20487;-89
2022/08/06 03:24:24;;;;;;;7.78;7.13;;;;;;;;;;4997605;28;20150;-89
2022/08/06 03:26:53;;;;;;;8.27;6.90;;;;;;;;;;4996818;28;20073;-89
2022/08/06 03:29:22;;;;;;;7.65;6.57;;;;;;;;;;4998243;28;20495;-89
2022/08/06 03:31:49;;;;;;;13.90;7.28;;;;;;;;;;4998729;28;20140;-92
2022/08/06 03:34:37;;;;;;;7.15;6.55;;;;;;;;;;4998235;28;20050;-91
2022/08/06 03:37:08;;;;;;;8.27;6.65;;;;;;;;;;4999294;28;20073;-90
2022/08/06 03:39:42;;;;;;;9.20;7.45;;;;;;;;;;4996893;28;20073;-91
2022/08/06 03:42:13;;;;;;;10.65;7.82;;;;;;;;;;4996810;28;20525;-91
2022/08/06 03:44:40;;;;;;;8.23;7.22;;;;;;;;;;4996759;28;20467;-91
2022/08/06 03:47:14;;;;;;;8.23;7.22;;;;;;;;;;4996561;28;20054;-91
2022/08/06 03:49:43;;;;;;;7.28;6.60;;;;;;;;;;4996778;28;20050;-91
2022/08/06 03:52:17;;;;;;;9.90;6.75;;;;;;;;;;4997257;28;20054;-91
2022/08/06 03:54:50;;;;;;;9.93;6.93;;;;;;;;;;5004070;28;20062;-90
2022/08/06 03:57:19;;;;;;;9.27;6.35;;;;;;;;;;4997823;28;20054;-90
2022/08/06 04:00:00;;;;;;;6.97;6.30;;;;;;;;;;4996283;28;20050;-90
2022/08/06 04:02:31;;;;;;;6.90;6.22;;;;;;;;;;4996403;28;20058;-90
2022/08/06 04:05:17;;;;;;;8.65;5.95;;;;;;;;;;4996249;28;20046;-90
2022/08/06 04:07:50;;;;;;;8.25;6.60;;;;;;;;;;4996185;28;20073;-90
2022/08/06 04:10:23;;;;;;;7.15;5.88;;;;;;;;;;4996291;28;20042;-89
2022/08/06 04:13:01;;;;;;;5.32;4.82;;;;;;;;;;4996127;28;20046;-90
2022/08/06 04:15:49;;;;;;;7.38;6.28;;;;;;;;;;4996069;28;20062;-89
2022/08/06 04:18:27;;;;;;;7.05;6.03;;;;;;;;;;4995939;28;20081;-90
2022/08/06 04:20:56;;;;;;;6.63;6.03;;;;;;;;;;4996062;28;20140;-89
2022/08/06 04:23:43;;;;;;;4.80;4.22;;;;;;;;;;4995968;28;20042;-90
2022/08/06 04:26:13;;;;;;;9.80;4.80;;;;;;;;;;4995638;28;20088;-90
2022/08/06 04:28:43;;;;;;;5.47;4.97;;;;;;;;;;4996020;28;20094;-89
2022/08/06 04:31:25;;;;;;;7.38;5.90;;;;;;;;;;4996101;28;20046;-89
2022/08/06 04:34:14;;;;;;;9.02;6.75;;;;;;;;;;4994948;28;20054;-90
2022/08/06 04:36:41;;;;;;;7.40;5.97;;;;;;;;;;4995458;28;20070;-89
2022/08/06 04:39:20;;;;;;;6.57;5.95;;;;;;;;;;4995712;28;20065;-89
2022/08/06 04:42:03;;;;;;;8.15;7.18;;;;;;;;;;4996323;28;20054;-89
2022/08/06 04:44:32;;;;;;;12.35;8.13;;;;;;;;;;4996484;28;20066;-90
2022/08/06 04:47:00;;;;;;;7.63;6.32;;;;;;;;;;4996136;28;20085;-90
2022/08/06 04:49:27;;;;;;;11.07;6.55;;;;;;;;;;4996169;28;20097;-90
2022/08/06 04:52:21;;;;;;;8.95;7.75;;;;;;;;;;4995444;28;20505;-90
2022/08/06 04:55:03;;;;;;;14.43;9.35;;;;;;;;;;4995073;28;20097;-90
2022/08/06 04:57:31;;;;;;;12.77;9.75;;;;;;;;;;4995086;28;20109;-88
2022/08/06 05:00:08;;;;;;;13.57;9.25;;;;;;;;;;4995100;28;20046;-90
2022/08/06 05:02:38;;;;;;;21.05;13.00;;;;;;;;;;4996497;28;20065;-89
2022/08/06 05:05:07;;;;;;;21.58;12.88;;;;;;;;;;4995522;28;20058;-90
2022/08/06 05:07:36;;;;;;;18.27;11.95;;;;;;;;;;4995230;28;20482;-90
2022/08/06 05:10:23;;;;;;;12.23;9.63;;;;;;;;;;4995332;28;20108;-89
2022/08/06 05:12:56;;;;;;;13.77;10.32;;;;;;;;;;4997908;28;20146;-90
2022/08/06 05:15:32;;;;;;;16.40;11.52;;;;;;;;;;5008537;28;20065;-90
2022/08/06 05:18:09;;;;;;;17.52;11.73;;;;;;;;;;4994905;28;20193;-90
2022/08/06 05:20:57;;;;;;;17.80;12.13;;;;;;;;;;4994645;28;20491;-90
2022/08/06 05:23:29;;;;;;;22.85;13.82;;;;;;;;;;4995219;28;20074;-90
2022/08/06 05:25:58;;;;;;;22.67;13.13;;;;;;;;;;4994830;28;20055;-90
2022/08/06 05:28:25;;;;;;;17.52;12.90;;;;;;;;;;4994971;28;20081;-90
2022/08/06 05:30:54;;;;;;;19.52;12.93;;;;;;;;;;4994450;28;20050;-90
2022/08/06 05:33:36;;;;;;;18.08;13.65;;;;;;;;;;4994648;28;20050;-91
2022/08/06 05:36:10;;;;;;;15.57;12.20;;;;;;;;;;4994413;28;20562;-90
2022/08/06 05:38:45;;;;;;;16.13;12.95;;;;;;;;;;4994383;28;20108;-89
2022/08/06 05:41:25;;;;;;;15.98;12.05;;;;;;;;;;4994629;28;20054;-91
2022/08/06 05:43:56;;;;;;;14.20;9.55;;;;;;;;;;4994582;28;20533;-91
2022/08/06 05:46:49;;;;;;;16.27;11.23;;;;;;;;;;4994558;28;20073;-92
2022/08/06 05:49:20;;;;;;;17.38;11.63;;;;;;;;;;4987722;28;20109;-91
2022/08/06 05:52:14;;;;;;;18.52;10.77;;;;;;;;;;4994513;28;20051;-91
2022/08/06 05:54:48;;;;;;;18.73;9.43;;;;;;;;;;4994602;28;20057;-92
2022/08/06 05:57:25;;;;;;;11.57;8.07;;;;;;;;;;4994470;28;20510;-92
2022/08/06 06:00:11;;;;;;;9.45;7.13;;;;;;;;;;4994498;28;20072;-91
2022/08/06 06:02:58;;;;;;;7.85;5.40;;;;;;;;;;4994675;28;20525;-93
2022/08/06 06:05:30;;;;;;;8.75;4.72;;;;;;;;;;4994430;28;20050;-94
2022/08/06 06:08:18;;;;;;;6.03;3.42;;;;;;;;;;4994579;28;20137;-95
2022/08/06 06:11:04;;;;;;;3.90;3.20;;;;;;;;;;4994499;28;20411;-96
2022/08/06 06:13:32;;;;;;;3.38;2.97;;;;;;;;;;5000711;28;20054;-96
2022/08/06 06:16:23;;;;;;;5.55;3.30;;;;;;;;;;4995461;28;20165;-95
2022/08/06 06:19:02;;;;;;;4.70;2.60;;;;;;;;;;4997197;28;20085;-93
2022/08/06 06:21:47;;;;;;;2.20;2.10;;;;;;;;;;4994049;28;20093;-93
2022/08/06 06:24:21;;;;;;;4.97;1.80;;;;;;;;;;4998614;28;20046;-94
2022/08/06 06:26:58;;;;;;;3.08;1.85;;;;;;;;;;4998002;28;20054;-96
2022/08/06 06:29:39;;;;;;;5.20;1.70;;;;;;;;;;5005217;28;20051;-92
2022/08/06 06:32:35;;;;;;;5.65;1.67;;;;;;;;;;5004642;28;20050;-95
2022/08/06 06:35:28;;;;;;;1.48;1.10;;;;;;;;;;5011814;28;20084;-94
2022/08/06 06:38:07;;;;;;;2.20;1.15;;;;;;;;;;5004195;28;20070;-88
2022/08/06 06:40:54;;;;;;;1.10;0.80;;;;;;;;;;4996485;28;20050;-94
2022/08/06 06:43:48;;;;;;;2.13;0.85;;;;;;;;;;5020013;22;20046;-84
2022/08/06 06:46:23;;;;;;;1.50;0.93;;;;;;;;;;5018606;28;20049;-85
2022/08/06 06:49:26;;;;;;;2.45;0.98;;;;;;;;;;5020124;28;20064;-85
2022/08/06 06:52:17;;;;;;;4.88;1.20;;;;;;;;;;5016812;28;20080;-85
2022/08/06 06:55:05;;;;;;;1.13;0.80;;;;;;;;;;5015338;28;20060;-84
2022/08/06 06:57:46;;;;;;;2.88;1.10;;;;;;;;;;5016328;28;20045;-86
2022/08/06 07:00:13;;;;;;;3.85;1.00;;;;;;;;;;5015746;28;20046;-85
2022/08/06 07:03:01;;;;;;;3.80;1.20;;;;;;;;;;5016020;28;20112;-86
2022/08/06 07:05:31;;;;;;;5.43;0.98;;;;;;;;;;5014931;28;20054;-83
2022/08/06 07:08:20;;;;;;;2.75;0.65;;;;;;;;;;5014222;28;20492;-84
2022/08/06 07:11:05;;;;;;;1.15;0.80;;;;;;;;;;5014326;28;20510;-82
2022/08/06 07:13:33;;;;;;;0.82;0.68;;;;;;;;;;5014166;28;20058;-84
2022/08/06 07:16:18;;;;;;;1.85;0.90;;;;;;;;;;5013858;28;20088;-84
2022/08/06 07:19:02;;;;;;;3.60;0.70;;;;;;;;;;5013892;28;20112;-83
2022/08/06 07:21:30;;;;;;;2.47;0.70;;;;;;;;;;5015325;28;20092;-84
2022/08/06 07:23:57;;;;;;;1.55;0.60;;;;;;;;;;5013809;28;20042;-85
2022/08/06 07:26:46;;;;;;;0.95;0.40;;;;;;;;;;5018516;28;20137;-84
2022/08/06 07:29:17;;;;;;;2.05;0.30;;;;;;;;;;5017950;28;20073;-85
2022/08/06 07:32:05;;;;;;;3.65;0.50;;;;;;;;;;5017054;28;20054;-85
2022/08/06 07:34:37;;;;;;;5.72;0.40;;;;;;;;;;5018849;28;20054;-84
2022/08/06 07:37:10;;;;;;;2.78;0.40;;;;;;;;;;5017529;28;20049;-86
2022/08/06 07:39:42;;;;;;;0.28;0.20;;;;;;;;;;5017750;28;20046;-86
2022/08/06 07:42:13;;;;;;;3.13;0.32;;;;;;;;;;5018654;28;20197;-86
2022/08/06 07:44:43;;;;;;;8.15;0.80;;;;;;;;;;5018466;28;20504;-87
2022/08/06 07:47:26;;;;;;;1.40;0.40;;;;;;;;;;5020759;28;20082;-87
2022/08/06 07:50:14;;;;;;;0.88;0.45;;;;;;;;;;5017344;28;20135;-86
2022/08/06 07:52:43;;;;;;;1.63;0.30;;;;;;;;;;5015896;28;20112;-85
2022/08/06 07:55:13;;;;;;;0.82;0.30;;;;;;;;;;5014199;28;20046;-85
2022/08/06 07:57:41;;;;;;;0.43;0.20;;;;;;;;;;5013264;28;20050;-85
2022/08/06 08:00:25;;;;;;;0.60;0.30;;;;;;;;;;5014667;28;20046;-84
2022/08/06 08:06:23;;;;;;;2.67;0.52;;;;;;;;;;5018691;28;20045;-85
2022/08/06 08:08:53;;;;;;;2.00;0.30;;;;;;;;;;5018162;28;20077;-85
2022/08/06 08:11:24;;;;;;;3.85;0.68;;;;;;;;;;5021088;28;20496;-85
2022/08/06 08:14:12;;;;;;;1.10;0.57;;;;;;;;;;5021430;28;20429;-85
2022/08/06 08:16:41;;;;;;;1.45;0.40;;;;;;;;;;5020523;28;20519;-83
2022/08/06 08:19:30;;;;;;;2.33;0.40;;;;;;;;;;5020306;28;20388;-83
2022/08/06 08:22:06;;;;;;;2.47;0.60;;;;;;;;;;5019828;28;20053;-85
2022/08/06 08:24:35;;;;;;;0.85;0.50;;;;;;;;;;5020200;28;20046;-87
2022/08/06 08:27:03;;;;;;;1.70;0.47;;;;;;;;;;5021609;28;20057;-85
2022/08/06 08:29:48;;;;;;;0.77;0.30;;;;;;;;;;5024433;28;20060;-87
2022/08/06 08:32:24;;;;;;;6.68;0.30;;;;;;;;;;5025525;28;20049;-87
2022/08/06 08:34:52;;;;;;;2.88;0.50;;;;;;;;;;5022443;28;20057;-84
2022/08/06 08:37:22;;;;;;;1.45;0.32;;;;;;;;;;5021555;28;20046;-85
2022/08/06 08:39:49;;;;;;;0.95;0.35;;;;;;;;;;5023724;28;20050;-86
2022/08/06 08:42:25;;;;;;;11.50;0.65;;;;;;;;;;5026963;28;20050;-85
2022/08/06 08:44:59;;;;;;;0.52;0.40;;;;;;;;;;5026579;28;20081;-87
2022/08/06 08:47:26;;;;;;;2.08;0.57;;;;;;;;;;5019750;28;20403;-86
2022/08/06 08:50:13;;;;;;;2.22;0.63;;;;;;;;;;5023978;28;20112;-85
2022/08/06 08:52:45;;;;;;;2.20;0.60;;;;;;;;;;5023249;28;20057;-87
2022/08/06 08:55:15;;;;;;;1.08;0.50;;;;;;;;;;5026976;28;20050;-86
2022/08/06 08:58:03;;;;;;;1.05;0.40;;;;;;;;;;5027474;28;20128;-83
2022/08/06 09:00:50;;;;;;;1.38;0.20;;;;;;;;;;5027007;28;20137;-86
2022/08/06 09:03:20;;;;;;;2.90;0.20;;;;;;;;;;5026377;28;20114;-85
2022/08/06 09:05:49;;;;;;;1.08;0.35;;;;;;;;;;5026271;28;20460;-85
2022/08/06 09:08:19;;;;;;;1.27;0.40;;;;;;;;;;5026254;28;20054;-85
2022/08/06 09:11:07;;;;;;;0.95;0.32;;;;;;;;;;5021356;28;20149;-86
2022/08/06 09:13:54;;;;;;;0.60;0.47;;;;;;;;;;5021603;28;20100;-82
2022/08/06 09:16:23;;;;;;;2.28;0.50;;;;;;;;;;5022673;28;20108;-83
2022/08/06 09:18:58;;;;;;;1.40;0.40;;;;;;;;;;5022958;28;20539;-83
2022/08/06 09:21:25;;;;;;;1.48;0.40;;;;;;;;;;5026793;28;20050;-85
2022/08/06 09:23:55;;;;;;;2.10;0.32;;;;;;;;;;5017442;28;20045;-85
2022/08/06 09:26:25;;;;;;;2.85;0.40;;;;;;;;;;5021008;28;20045;-85
2022/08/06 09:29:19;;;;;;;0.63;0.30;;;;;;;;;;5021486;28;20045;-85
2022/08/06 09:31:58;;;;;;;7.00;0.30;;;;;;;;;;5020849;28;20188;-83
2022/08/06 09:34:33;;;;;;;0.77;0.30;;;;;;;;;;5021147;28;20102;-85
2022/08/06 09:37:08;;;;;;;0.47;0.20;;;;;;;;;;5020198;28;20054;-83
2022/08/06 09:39:39;;;;;;;1.73;0.30;;;;;;;;;;5022246;28;20076;-86
2022/08/06 09:42:43;;;;;;;2.25;0.38;;;;;;;;;;5024736;28;20045;-82
2022/08/06 09:45:14;;;;;;;0.47;0.20;;;;;;;;;;5019082;28;20249;-82
2022/08/06 09:47:44;;;;;;;4.30;0.40;;;;;;;;;;5020177;28;20054;-86
2022/08/06 09:50:44;;;;;;;2.75;0.70;;;;;;;;;;5022551;28;20076;-82
2022/08/06 09:53:13;;;;;;;0.65;0.25;;;;;;;;;;5022629;28;20053;-87
2022/08/06 09:55:48;;;;;;;1.13;0.40;;;;;;;;;;5021813;28;20120;-85
2022/08/06 09:58:27;;;;;;;1.25;0.40;;;;;;;;;;5022787;28;20072;-86
2022/08/06 10:00:55;;;;;;;2.78;0.30;;;;;;;;;;5026666;28;20076;-83
2022/08/06 10:03:23;;;;;;;0.73;0.20;;;;;;;;;;5026507;28;20109;-85
2022/08/06 10:06:12;;;;;;;2.00;0.30;;;;;;;;;;5025229;28;20083;-83
2022/08/06 10:08:41;;;;;;;0.73;0.25;;;;;;;;;;5025992;28;20132;-84
2022/08/06 10:11:08;;;;;;;2.40;0.40;;;;;;;;;;5022051;28;20046;-85
2022/08/06 10:13:39;;;;;;;0.40;0.30;;;;;;;;;;5025287;28;20042;-83
2022/08/06 10:16:30;;;;;;;2.45;0.30;;;;;;;;;;5024688;28;20077;-83
2022/08/06 10:18:58;;;;;;;5.00;0.60;;;;;;;;;;5023171;28;20108;-82
2022/08/06 10:21:45;;;;;;;0.47;0.20;;;;;;;;;;5024945;28;20065;-83
2022/08/06 10:24:15;;;;;;;1.08;0.40;;;;;;;;;;5024520;28;20081;-83
2022/08/06 10:27:06;;;;;;;0.93;0.30;;;;;;;;;;5015712;28;20080;-84
2022/08/06 10:29:41;;;;;;;0.90;0.45;;;;;;;;;;5027509;22;20559;-83
2022/08/06 10:32:10;;;;;;;0.93;0.25;;;;;;;;;;5025189;28;20042;-84
2022/08/06 10:34:39;;;;;;;1.92;0.40;;;;;;;;;;5025361;28;20073;-83
2022/08/06 10:37:07;;;;;;;1.60;0.30;;;;;;;;;;5024945;28;20049;-83
2022/08/06 10:39:57;;;;;;;0.70;0.43;;;;;;;;;;5019207;28;20135;-83
2022/08/06 10:42:36;;;;;;;1.75;0.20;;;;;;;;;;5022052;22;20056;-87
2022/08/06 10:45:08;;;;;;;0.43;0.20;;;;;;;;;;5012768;28;20450;-86
2022/08/06 10:47:43;;;;;;;1.27;0.28;;;;;;;;;;5012309;28;20061;-85
2022/08/06 10:50:31;;;;;;;1.33;0.30;;;;;;;;;;5012968;28;20056;-86
2022/08/06 10:53:11;;;;;;;0.65;0.20;;;;;;;;;;5013061;28;20066;-85
2022/08/06 10:56:01;;;;;;;2.60;0.75;;;;;;;;;;5012546;28;20050;-88
2022/08/06 10:58:29;;;;;;;0.80;0.30;;;;;;;;;;5013069;28;20103;-84
2022/08/06 11:00:57;;;;;;;1.10;0.40;;;;;;;;;;5013523;28;20478;-88
2022/08/06 11:03:28;;;;;;;0.65;0.20;;;;;;;;;;5013502;28;20073;-85
2022/08/06 11:06:11;;;;;;;1.42;0.20;;;;;;;;;;5012597;28;20042;-86
2022/08/06 11:08:49;;;;;;;1.88;0.28;;;;;;;;;;5012680;28;20056;-87
2022/08/06 11:11:50;;;;;;;0.40;0.20;;;;;;;;;;5012910;28;20050;-85
2022/08/06 11:14:38;;;;;;;1.55;0.30;;;;;;;;;;5012389;28;20141;-84
2022/08/06 11:17:06;;;;;;;0.98;0.25;;;;;;;;;;5012013;28;20073;-85
2022/08/06 11:19:47;;;;;;;0.32;0.20;;;;;;;;;;5012444;28;20056;-85
2022/08/06 11:22:39;;;;;;;0.17;0.10;;;;;;;;;;5015639;28;20060;-86
2022/08/06 11:25:37;;;;;;;1.38;0.38;;;;;;;;;;5011749;28;20096;-85
2022/08/06 11:28:06;;;;;;;0.20;0.20;;;;;;;;;;5012004;28;20054;-86
2022/08/06 11:30:38;;;;;;;0.50;0.10;;;;;;;;;;5012192;28;20054;-84
2022/08/06 11:33:07;;;;;;;2.20;0.30;;;;;;;;;;5012042;28;20085;-84
2022/08/06 11:35:35;;;;;;;0.80;0.30;;;;;;;;;;5012172;28;20049;-85
2022/08/06 11:38:37;;;;;;;2.38;0.43;;;;;;;;;;5012542;28;20466;-88
2022/08/06 11:41:12;;;;;;;2.47;0.55;;;;;;;;;;5012087;28;20065;-87
2022/08/06 11:43:59;;;;;;;0.95;0.22;;;;;;;;;;5013994;28;20050;-86
2022/08/06 11:46:37;;;;;;;0.90;0.20;;;;;;;;;;5026788;22;20407;-80
2022/08/06 11:49:21;;;;;;;1.63;0.30;;;;;;;;;;5020328;28;20574;-81
2022/08/06 11:51:53;;;;;;;1.15;0.40;;;;;;;;;;5020014;28;20563;-80
2022/08/06 11:54:37;;;;;;;0.80;0.30;;;;;;;;;;5019844;28;20103;-80
2022/08/06 11:57:08;;;;;;;1.20;0.68;;;;;;;;;;5019689;28;20058;-81
2022/08/06 12:00:02;;;;;;;1.27;0.20;;;;;;;;;;5025934;22;20064;-85
2022/08/06 12:02:29;;;;;;;;;;;;;;;;;;5016498;28;20116;-85
2022/08/06 12:04:56;;;;;;;0.45;0.25;;;;;;;;;;5016066;28;19921;-85
2022/08/06 12:07:23;;;;;;;1.05;0.40;;;;;;;;;;5016005;28;20069;-85
2022/08/06 12:10:02;;;;;;;0.60;0.30;;;;;;;;;;5015704;28;20076;-85
2022/08/06 12:12:49;;;;;;;1.08;0.32;;;;;;;;;;5016257;28;20056;-86
2022/08/06 12:15:16;;;;;;;;;;;;;;;;;;5017062;28;20054;-87
2022/08/06 12:17:56;;;;;;;0.80;0.37;;;;;;;;;;5015601;28;19927;-85
2022/08/06 12:20:43;;;;;;;0.80;0.20;;;;;;;;;;5016302;28;20046;-86
2022/08/06 12:23:16;;;;;;;0.55;0.13;;;;;;;;;;5019002;28;20300;-86
2022/08/06 12:25:46;;;;;;;1.75;0.10;;;;;;;;;;5017532;28;20049;-84
2022/08/06 12:28:20;;;;;;;0.60;0.30;;;;;;;;;;5016573;28;20058;-85
2022/08/06 12:30:48;;;;;;;0.95;0.20;;;;;;;;;;5015771;28;20054;-84
2022/08/06 12:33:16;;;;;;;0.75;0.20;;;;;;;;;;5015672;28;20053;-87
2022/08/06 12:35:57;;;;;;;0.93;0.43;;;;;;;;;;5016501;28;20085;-86
2022/08/06 12:38:30;;;;;;;2.30;0.30;;;;;;;;;;5016865;28;20050;-87
2022/08/06 12:40:57;;;;;;;0.50;0.20;;;;;;;;;;5019182;28;20057;-87
2022/08/06 12:43:26;;;;;;;0.20;0.10;;;;;;;;;;5014666;28;20046;-85
2022/08/06 12:46:15;;;;;;;4.20;0.22;;;;;;;;;;5014750;28;20414;-89
2022/08/06 12:48:50;;;;;;;0.95;0.22;;;;;;;;;;5016081;28;20091;-85
2022/08/06 12:51:19;;;;;;;2.00;0.30;;;;;;;;;;5014810;28;20149;-86
2022/08/06 12:53:55;;;;;;;1.02;0.10;;;;;;;;;;5014949;28;20050;-86
2022/08/06 12:56:25;;;;;;;0.50;0.32;;;;;;;;;;5013856;28;20410;-87
2022/08/06 12:58:58;;;;;;;0.10;0.10;;;;;;;;;;5014743;28;20439;-86
2022/08/06 13:01:27;;;;;;;2.25;0.38;;;;;;;;;;5014472;28;20100;-85
2022/08/06 13:04:14;;;;;;;0.73;0.20;;;;;;;;;;5015090;28;20049;-86
2022/08/06 13:06:44;;;;;;;0.82;0.10;;;;;;;;;;5016058;28;20041;-83
2022/08/06 13:09:14;;;;;;;1.17;0.32;;;;;;;;;;5015621;28;20060;-83
2022/08/06 13:11:42;;;;;;;2.15;0.20;;;;;;;;;;5016655;28;20404;-83
2022/08/06 13:14:19;;;;;;;1.02;0.20;;;;;;;;;;5016109;28;20100;-83
2022/08/06 13:16:47;;;;;;;0.35;0.10;;;;;;;;;;5015479;28;20510;-84
2022/08/06 13:19:21;;;;;;;0.93;0.20;;;;;;;;;;5015993;28;20050;-82
2022/08/06 13:22:09;;;;;;;1.02;0.20;;;;;;;;;;5016066;28;20099;-84
2022/08/06 13:24:37;;;;;;;0.77;0.20;;;;;;;;;;5016520;28;20041;-87
2022/08/06 13:27:39;;;;;;;3.45;0.20;;;;;;;;;;5016887;28;20502;-81
2022/08/06 13:30:30;;;;;;;2.55;0.25;;;;;;;;;;5016714;28;20050;-87
2022/08/06 13:33:24;;;;;;;0.20;0.10;;;;;;;;;;5016226;28;20507;-85
2022/08/06 13:35:52;;;;;;;0.68;0.50;;;;;;;;;;5017460;28;20053;-81
2022/08/06 13:38:29;;;;;;;0.35;0.10;;;;;;;;;;5018863;28;20081;-82
2022/08/06 13:40:56;;;;;;;1.02;0.28;;;;;;;;;;5018206;28;20088;-82
2022/08/06 13:43:30;;;;;;;;;;;;;;;;;;5020522;28;20073;-85
2022/08/06 13:46:06;;;;;;;1.38;0.40;;;;;;;;;;5017993;28;19925;-85
2022/08/06 13:48:45;;;;;;;2.67;0.30;;;;;;;;;;5018487;28;20053;-83
2022/08/06 13:51:14;;;;;;;2.95;0.30;;;;;;;;;;5022291;28;20054;-83
2022/08/06 13:53:52;;;;;;;1.73;0.38;;;;;;;;;;5021136;28;20046;-84
2022/08/06 13:56:25;;;;;;;1.50;0.20;;;;;;;;;;5022102;28;20054;-84
2022/08/06 13:58:55;;;;;;;1.55;0.20;;;;;;;;;;5021692;28;20054;-83
2022/08/06 14:01:23;;;;;;;1.73;0.30;;;;;;;;;;5016098;28;20095;-83
2022/08/06 14:04:01;;;;;;;0.88;0.30;;;;;;;;;;5015026;28;20050;-83
2022/08/06 14:06:28;;;;;;;1.95;0.30;;;;;;;;;;5015226;28;20089;-87
2022/08/06 14:08:59;;;;;;;3.20;0.38;;;;;;;;;;5015730;28;20049;-84
2022/08/06 14:11:27;;;;;;;0.82;0.20;;;;;;;;;;5014021;28;20561;-84
2022/08/06 14:14:02;;;;;;;0.38;0.10;;;;;;;;;;5013788;28;20058;-84
2022/08/06 14:16:31;;;;;;;2.35;0.40;;;;;;;;;;5015410;28;20060;-82
2022/08/06 14:19:00;;;;;;;1.25;0.40;;;;;;;;;;5015290;28;20064;-85
2022/08/06 14:21:47;;;;;;;1.17;0.20;;;;;;;;;;5015464;28;20129;-83
2022/08/06 14:24:15;;;;;;;0.10;0.03;;;;;;;;;;5014872;28;20056;-83
2022/08/06 14:26:51;;;;;;;0.77;0.30;;;;;;;;;;5015315;28;20057;-84
2022/08/06 14:29:22;;;;;;;1.45;0.45;;;;;;;;;;5015423;28;20053;-85
2022/08/06 14:32:10;;;;;;;2.50;0.30;;;;;;;;;;5014287;28;20562;-84
2022/08/06 14:34:38;;;;;;;1.05;0.40;;;;;;;;;;5013502;28;20469;-85
2022/08/06 14:37:11;;;;;;;1.10;0.20;;;;;;;;;;5013460;28;20060;-84
2022/08/06 14:39:40;;;;;;;1.45;0.50;;;;;;;;;;5013335;28;20051;-82
2022/08/06 14:45:13;;;;;;;0.55;0.20;;;;;;;;;;5015023;28;20057;-84
2022/08/06 14:47:47;;;;;;;2.70;0.30;;;;;;;;;;5013177;28;20050;-83
2022/08/06 14:50:27;;;;;;;1.00;0.20;;;;;;;;;;5013008;28;20475;-84
2022/08/06 14:53:08;;;;;;;1.35;0.10;;;;;;;;;;5013200;28;20057;-86
2022/08/06 14:55:42;;;;;;;0.77;0.28;;;;;;;;;;5012726;28;20537;-83
2022/08/06 14:58:29;;;;;;;1.02;0.20;;;;;;;;;;5012370;28;20495;-82
2022/08/06 15:00:57;;;;;;;0.75;0.20;;;;;;;;;;5012255;28;20454;-83
2022/08/06 15:03:29;;;;;;;0.20;0.13;;;;;;;;;;5019878;28;20415;-85
2022/08/06 15:06:00;;;;;;;0.20;0.10;;;;;;;;;;5019748;28;20042;-85
2022/08/06 15:08:33;;;;;;;0.65;0.20;;;;;;;;;;5017910;28;20077;-85
2022/08/06 15:11:03;;;;;;;1.00;0.20;;;;;;;;;;5020357;28;20053;-85
2022/08/06 15:13:40;;;;;;;1.00;0.35;;;;;;;;;;5020369;28;20129;-85
2022/08/06 15:16:07;;;;;;;0.95;0.20;;;;;;;;;;5022115;28;20050;-86
2022/08/06 15:18:54;;;;;;;1.33;0.15;;;;;;;;;;5021250;28;20113;-84
2022/08/06 15:21:42;;;;;;;0.82;0.40;;;;;;;;;;5020914;28;20128;-84
2022/08/06 15:24:21;;;;;;;2.60;0.43;;;;;;;;;;5020334;28;20046;-86
2022/08/06 15:26:51;;;;;;;0.17;0.10;;;;;;;;;;5020843;28;20124;-84
2022/08/06 15:29:24;;;;;;;1.02;0.30;;;;;;;;;;5019723;28;20049;-82
2022/08/06 15:31:51;;;;;;;0.75;0.22;;;;;;;;;;5022044;28;20051;-85
2022/08/06 15:34:18;;;;;;;2.10;0.45;;;;;;;;;;5020913;28;20062;-84
2022/08/06 15:36:55;;;;;;;0.50;0.20;;;;;;;;;;5019746;28;20050;-84
2022/08/06 15:39:33;;;;;;;1.50;0.20;;;;;;;;;;5021132;28;20388;-86